createdAt,value
2023-03-17T00:00:31.780Z,48.26
2023-03-17T00:01:33.823Z,49.46
2023-03-17T00:02:35.807Z,49.86
2023-03-17T00:03:40.329Z,50.15
2023-03-17T00:04:41.876Z,49.73
2023-03-17T00:05:43.379Z,49.02
2023-03-17T00:06:44.886Z,49.49
2023-03-17T00:07:46.716Z,49.40
2023-03-17T00:08:48.215Z,49.34
2023-03-17T00:09:49.702Z,50.07
2023-03-17T00:10:51.626Z,49.64
2023-03-17T00:11:53.520Z,49.36
2023-03-17T00:12:55.219Z,50.33
2023-03-17T00:13:56.764Z,50.30
2023-03-17T00:14:58.492Z,50.72
2023-03-17T00:16:01.659Z,50.60
2023-03-17T00:17:03.234Z,50.66
2023-03-17T00:18:04.763Z,50.81
2023-03-17T00:19:06.255Z,51.21
2023-03-17T00:20:11.754Z,51.72
2023-03-17T00:21:14.061Z,50.99
2023-03-17T00:22:17.984Z,51.61
2023-03-17T00:23:23.013Z,51.39
2023-03-17T00:24:24.586Z,50.80
2023-03-17T00:25:29.030Z,50.88
2023-03-17T00:26:31.349Z,51.95
2023-03-17T00:27:33.133Z,51.32
2023-03-17T00:28:34.760Z,50.95
2023-03-17T00:29:36.285Z,50.81
2023-03-17T00:30:38.892Z,51.17
2023-03-17T00:31:40.453Z,51.08
2023-03-17T00:32:41.978Z,51.17
2023-03-17T00:33:43.898Z,51.22
2023-03-17T00:34:45.432Z,51.27
2023-03-17T00:35:47.281Z,50.91
2023-03-17T00:36:50.132Z,51.37
2023-03-17T00:37:55.440Z,50.64
2023-03-17T00:38:57.340Z,51.00
2023-03-17T00:39:58.839Z,50.76
2023-03-17T00:41:00.729Z,50.25
2023-03-17T00:42:02.452Z,49.82
2023-03-17T00:43:03.977Z,50.27
2023-03-17T00:44:05.486Z,50.01
2023-03-17T00:45:07.555Z,50.31
2023-03-17T00:46:16.981Z,51.22
2023-03-17T00:47:18.535Z,51.66
2023-03-17T00:48:20.840Z,52.36
2023-03-17T00:49:23.469Z,52.16
2023-03-17T00:50:28.101Z,51.33
2023-03-17T00:51:30.191Z,50.75
2023-03-17T00:52:31.702Z,50.81
2023-03-17T00:53:33.287Z,51.07
2023-03-17T00:54:35.542Z,51.59
2023-03-17T00:55:37.298Z,51.30
2023-03-17T00:56:38.890Z,51.96
2023-03-17T00:57:40.464Z,51.52
2023-03-17T00:58:42.154Z,51.77
2023-03-17T00:59:43.678Z,51.14
2023-03-17T01:00:45.972Z,50.94
2023-03-17T01:01:47.939Z,50.88
2023-03-17T01:02:51.269Z,50.91
2023-03-17T01:03:52.845Z,50.26
2023-03-17T01:05:05.475Z,50.13
2023-03-17T01:06:09.823Z,49.77
2023-03-17T01:07:11.994Z,49.67
2023-03-17T01:08:14.497Z,49.37
2023-03-17T01:09:16.611Z,49.35
2023-03-17T01:10:19.984Z,49.45
2023-03-17T01:11:21.567Z,49.15
2023-03-17T01:12:23.086Z,49.86
2023-03-17T01:13:24.715Z,49.45
2023-03-17T01:14:26.225Z,48.16
2023-03-17T01:15:30.352Z,48.30
2023-03-17T01:16:32.081Z,47.62
2023-03-17T01:17:33.651Z,48.40
2023-03-17T01:18:35.242Z,49.04
2023-03-17T01:19:37.489Z,48.83
2023-03-17T01:20:39.821Z,48.89
2023-03-17T01:21:42.514Z,48.58
2023-03-17T01:22:44.134Z,48.97
2023-03-17T01:23:45.602Z,48.98
2023-03-17T01:24:48.134Z,49.28
2023-03-17T01:25:50.462Z,48.64
2023-03-17T01:26:52.102Z,48.68
2023-03-17T01:27:54.311Z,48.43
2023-03-17T01:28:55.861Z,48.83
2023-03-17T01:29:57.362Z,48.67
2023-03-17T01:30:58.881Z,48.80
2023-03-17T01:32:00.433Z,49.00
2023-03-17T01:33:02.061Z,48.50
2023-03-17T01:34:06.080Z,48.44
2023-03-17T01:35:07.924Z,48.75
2023-03-17T01:36:09.715Z,48.70
2023-03-17T01:37:11.319Z,48.72
2023-03-17T01:38:12.981Z,49.95
2023-03-17T01:39:15.212Z,51.14
2023-03-17T01:40:19.237Z,50.50
2023-03-17T01:41:21.177Z,50.44
2023-03-17T01:42:22.648Z,50.68
2023-03-17T01:43:25.948Z,50.73
2023-03-17T01:44:27.473Z,51.14
2023-03-17T01:46:07.042Z,50.94
2023-03-17T01:47:08.986Z,50.20
2023-03-17T01:48:10.522Z,49.88
2023-03-17T01:49:21.253Z,50.38
2023-03-17T01:50:22.757Z,50.28
2023-03-17T01:51:37.845Z,50.73
2023-03-17T01:52:39.702Z,50.48
2023-03-17T01:53:41.925Z,49.98
2023-03-17T01:54:50.328Z,50.62
2023-03-17T01:55:52.213Z,49.62
2023-03-17T01:56:53.942Z,49.96
2023-03-17T01:57:56.449Z,50.29
2023-03-17T01:58:58.610Z,49.95
2023-03-17T02:00:05.198Z,49.79
2023-03-17T02:01:07.496Z,49.18
2023-03-17T02:02:10.821Z,49.06
2023-03-17T02:03:13.071Z,49.39
2023-03-17T02:04:16.197Z,49.60
2023-03-17T02:05:20.679Z,49.53
2023-03-17T02:06:22.545Z,49.80
2023-03-17T02:07:24.455Z,49.71
2023-03-17T02:08:26.316Z,50.75
2023-03-17T02:09:27.827Z,50.74
2023-03-17T02:10:29.780Z,51.30
2023-03-17T02:11:32.221Z,51.82
2023-03-17T02:12:34.058Z,51.82
2023-03-17T02:13:35.635Z,51.20
2023-03-17T02:14:37.410Z,51.09
2023-03-17T02:15:49.533Z,51.13
2023-03-17T02:16:51.112Z,50.33
2023-03-17T02:17:52.818Z,50.53
2023-03-17T02:18:54.324Z,50.68
2023-03-17T02:19:56.130Z,50.67
2023-03-17T02:20:57.650Z,50.76
2023-03-17T02:21:59.241Z,50.30
2023-03-17T02:23:00.814Z,50.03
2023-03-17T02:24:05.334Z,50.23
2023-03-17T02:25:07.699Z,50.07
2023-03-17T02:26:09.232Z,49.82
2023-03-17T02:27:18.532Z,49.80
2023-03-17T02:28:23.515Z,50.47
2023-03-17T02:29:25.038Z,50.50
2023-03-17T02:30:26.623Z,50.94
2023-03-17T02:31:28.151Z,51.61
2023-03-17T02:32:29.670Z,51.59
2023-03-17T02:33:31.944Z,51.07
2023-03-17T02:34:33.859Z,51.07
2023-03-17T02:35:35.431Z,51.36
2023-03-17T02:36:37.593Z,51.45
2023-03-17T02:37:39.157Z,51.12
2023-03-17T02:38:41.203Z,51.76
2023-03-17T02:39:42.744Z,51.34
2023-03-17T02:40:44.254Z,51.82
2023-03-17T02:41:46.145Z,51.42
2023-03-17T02:42:48.168Z,51.91
2023-03-17T02:43:49.732Z,52.23
2023-03-17T02:44:51.237Z,51.36
2023-03-17T02:45:52.912Z,51.31
2023-03-17T02:46:54.804Z,51.60
2023-03-17T02:47:57.448Z,51.66
2023-03-17T02:48:58.954Z,51.07
2023-03-17T02:50:00.534Z,50.93
2023-03-17T02:51:02.377Z,50.83
2023-03-17T02:52:04.195Z,50.63
2023-03-17T02:53:05.770Z,50.67
2023-03-17T02:54:07.328Z,50.32
2023-03-17T02:55:10.420Z,50.62
2023-03-17T02:56:11.848Z,49.39
2023-03-17T02:57:13.224Z,49.00
2023-03-17T02:58:14.597Z,48.59
2023-03-17T02:59:16.290Z,49.58
2023-03-17T03:00:18.073Z,49.85
2023-03-17T03:01:21.157Z,49.76
2023-03-17T03:02:22.768Z,50.36
2023-03-17T03:03:24.306Z,50.41
2023-03-17T03:04:26.300Z,50.68
2023-03-17T03:05:28.901Z,50.85
2023-03-17T03:06:32.008Z,50.87
2023-03-17T03:07:33.359Z,50.43
2023-03-17T03:08:34.896Z,50.29
2023-03-17T03:09:37.165Z,50.47
2023-03-17T03:10:38.886Z,51.27
2023-03-17T03:11:41.135Z,51.35
2023-03-17T03:12:42.652Z,51.48
2023-03-17T03:13:44.239Z,51.66
2023-03-17T03:14:46.056Z,51.40
2023-03-17T03:15:47.658Z,51.61
2023-03-17T03:16:50.110Z,52.42
2023-03-17T03:17:51.633Z,52.41
2023-03-17T03:18:53.138Z,52.89
2023-03-17T03:19:55.334Z,52.07
2023-03-17T03:20:57.176Z,52.18
2023-03-17T03:21:58.657Z,51.60
2023-03-17T03:23:00.579Z,51.58
2023-03-17T03:24:02.259Z,51.58
2023-03-17T03:25:04.298Z,51.44
2023-03-17T03:26:05.909Z,51.06
2023-03-17T03:27:07.522Z,51.01
2023-03-17T03:28:10.039Z,51.60
2023-03-17T03:29:11.681Z,52.16
2023-03-17T03:30:13.323Z,52.67
2023-03-17T03:31:15.314Z,52.21
2023-03-17T03:32:17.093Z,52.45
2023-03-17T03:33:18.654Z,51.85
2023-03-17T03:34:20.609Z,51.29
2023-03-17T03:35:22.147Z,51.56
2023-03-17T03:36:23.668Z,50.81
2023-03-17T03:37:25.311Z,50.03
2023-03-17T03:38:27.288Z,50.92
2023-03-17T03:39:28.785Z,50.27
2023-03-17T03:40:30.457Z,50.97
2023-03-17T03:41:32.135Z,50.69
2023-03-17T03:42:33.667Z,50.55
2023-03-17T03:43:35.803Z,49.93
2023-03-17T03:44:37.356Z,50.67
2023-03-17T03:45:38.863Z,50.28
2023-03-17T03:46:40.619Z,50.14
2023-03-17T03:47:42.201Z,49.77
2023-03-17T03:48:43.697Z,49.75
2023-03-17T03:49:45.491Z,49.60
2023-03-17T03:50:46.988Z,48.75
2023-03-17T03:51:48.519Z,49.36
2023-03-17T03:52:50.050Z,48.40
2023-03-17T03:53:51.562Z,48.15
2023-03-17T03:54:53.065Z,48.39
2023-03-17T03:55:54.972Z,48.93
2023-03-17T03:56:56.456Z,48.25
2023-03-17T03:57:58.040Z,47.26
2023-03-17T03:58:59.559Z,47.74
2023-03-17T04:00:01.160Z,48.44
2023-03-17T04:01:06.610Z,48.54
2023-03-17T04:02:09.558Z,50.06
2023-03-17T04:03:11.278Z,50.15
2023-03-17T04:04:12.824Z,49.63
2023-03-17T04:05:15.399Z,49.41
2023-03-17T04:06:17.179Z,49.00
2023-03-17T04:07:18.692Z,48.81
2023-03-17T04:08:20.233Z,48.86
2023-03-17T04:09:22.333Z,48.83
2023-03-17T04:10:23.932Z,48.55
2023-03-17T04:11:25.868Z,48.35
2023-03-17T04:12:27.429Z,48.86
2023-03-17T04:13:28.936Z,48.43
2023-03-17T04:14:30.712Z,48.39
2023-03-17T04:15:32.214Z,47.87
2023-03-17T04:16:33.864Z,47.86
2023-03-17T04:17:35.567Z,48.22
2023-03-17T04:18:37.254Z,48.43
2023-03-17T04:19:39.113Z,49.33
2023-03-17T04:20:41.046Z,48.85
2023-03-17T04:21:43.133Z,49.10
2023-03-17T04:22:44.629Z,47.98
2023-03-17T04:23:46.362Z,48.13
2023-03-17T04:24:47.843Z,47.22
2023-03-17T04:25:53.235Z,48.09
2023-03-17T04:26:54.728Z,48.68
2023-03-17T04:27:56.232Z,48.77
2023-03-17T04:28:58.732Z,48.60
2023-03-17T04:30:01.552Z,48.32
2023-03-17T04:31:03.089Z,48.89
2023-03-17T04:32:04.759Z,48.66
2023-03-17T04:33:06.282Z,48.37
2023-03-17T04:34:09.840Z,49.05
2023-03-17T04:35:15.466Z,49.69
2023-03-17T04:36:20.979Z,48.79
2023-03-17T04:37:22.543Z,48.70
2023-03-17T04:38:24.100Z,48.95
2023-03-17T04:39:25.657Z,48.79
2023-03-17T04:40:27.740Z,49.21
2023-03-17T04:41:29.227Z,49.11
2023-03-17T04:42:30.821Z,48.78
2023-03-17T04:43:32.288Z,49.20
2023-03-17T04:44:33.812Z,49.94
2023-03-17T04:45:35.720Z,50.13
2023-03-17T04:46:38.221Z,50.39
2023-03-17T04:47:39.757Z,51.01
2023-03-17T04:48:41.372Z,50.38
2023-03-17T04:49:42.848Z,50.99
2023-03-17T04:50:45.513Z,50.12
2023-03-17T04:51:46.990Z,50.16
2023-03-17T04:52:48.587Z,50.15
2023-03-17T04:53:50.165Z,49.71
2023-03-17T04:54:51.687Z,50.07
2023-03-17T04:55:53.164Z,49.98
2023-03-17T04:56:54.644Z,49.47
2023-03-17T04:57:56.212Z,50.43
2023-03-17T04:58:57.724Z,50.49
2023-03-17T04:59:59.202Z,50.93
2023-03-17T05:01:02.437Z,50.63
2023-03-17T05:02:04.061Z,50.52
2023-03-17T05:03:20.038Z,50.85
2023-03-17T05:04:31.633Z,50.51
2023-03-17T05:05:34.318Z,50.40
2023-03-17T05:06:37.240Z,50.17
2023-03-17T05:07:38.839Z,50.03
2023-03-17T05:08:40.320Z,50.76
2023-03-17T05:09:41.981Z,49.55
2023-03-17T05:10:44.051Z,49.79
2023-03-17T05:11:45.613Z,50.22
2023-03-17T05:12:47.089Z,50.77
2023-03-17T05:13:48.565Z,50.60
2023-03-17T05:14:50.066Z,50.99
2023-03-17T05:15:53.172Z,50.99
2023-03-17T05:16:54.635Z,50.51
2023-03-17T05:17:56.623Z,49.89
2023-03-17T05:18:58.109Z,50.45
2023-03-17T05:19:59.592Z,50.93
2023-03-17T05:21:01.498Z,51.20
2023-03-17T05:22:02.986Z,51.48
2023-03-17T05:23:04.501Z,51.76
2023-03-17T05:24:06.462Z,51.85
2023-03-17T05:25:08.593Z,52.00
2023-03-17T05:26:10.315Z,51.89
2023-03-17T05:27:11.938Z,51.29
2023-03-17T05:28:13.689Z,51.42
2023-03-17T05:29:15.179Z,51.51
2023-03-17T05:30:17.042Z,52.07
2023-03-17T05:31:19.274Z,51.91
2023-03-17T05:32:21.002Z,51.80
2023-03-17T05:33:23.068Z,51.65
2023-03-17T05:34:24.574Z,51.60
2023-03-17T05:35:26.114Z,51.87
2023-03-17T05:36:27.643Z,51.59
2023-03-17T05:37:29.498Z,52.10
2023-03-17T05:38:31.043Z,51.44
2023-03-17T05:39:32.804Z,51.26
2023-03-17T05:40:35.456Z,51.26
2023-03-17T05:41:37.193Z,51.80
2023-03-17T05:42:38.954Z,51.41
2023-03-17T05:43:41.261Z,51.23
2023-03-17T05:44:43.252Z,50.42
2023-03-17T05:45:45.515Z,50.75
2023-03-17T05:46:47.563Z,50.74
2023-03-17T05:47:49.069Z,50.64
2023-03-17T05:48:50.605Z,50.72
2023-03-17T05:49:52.609Z,50.35
2023-03-17T05:50:54.077Z,50.98
2023-03-17T05:51:55.684Z,52.13
2023-03-17T05:52:57.177Z,51.94
2023-03-17T05:53:58.656Z,51.33
2023-03-17T05:55:00.160Z,51.67
2023-03-17T05:56:01.975Z,51.58
2023-03-17T05:57:03.981Z,52.01
2023-03-17T05:58:06.525Z,51.90
2023-03-17T05:59:08.368Z,51.86
2023-03-17T06:00:12.784Z,51.28
2023-03-17T06:01:14.360Z,51.02
2023-03-17T06:02:16.090Z,51.62
2023-03-17T06:03:17.680Z,51.10
2023-03-17T06:04:19.258Z,50.95
2023-03-17T06:05:20.773Z,51.12
2023-03-17T06:06:22.267Z,51.50
2023-03-17T06:07:23.782Z,51.67
2023-03-17T06:08:25.353Z,51.53
2023-03-17T06:09:27.189Z,51.45
2023-03-17T06:10:29.249Z,51.11
2023-03-17T06:11:31.412Z,51.43
2023-03-17T06:12:32.909Z,51.62
2023-03-17T06:13:34.416Z,51.25
2023-03-17T06:14:36.546Z,51.07
2023-03-17T06:15:39.303Z,51.23
2023-03-17T06:16:40.843Z,50.71
2023-03-17T06:17:42.557Z,50.85
2023-03-17T06:18:45.327Z,51.07
2023-03-17T06:19:49.020Z,51.13
2023-03-17T06:20:50.944Z,51.31
2023-03-17T06:21:52.435Z,50.91
2023-03-17T06:23:04.084Z,50.69
2023-03-17T06:24:07.246Z,50.27
2023-03-17T06:25:10.205Z,50.15
2023-03-17T06:26:11.760Z,49.68
2023-03-17T06:27:14.358Z,50.13
2023-03-17T06:28:15.906Z,49.56
2023-03-17T06:29:17.755Z,49.47
2023-03-17T06:30:20.076Z,48.79
2023-03-17T06:31:22.221Z,48.15
2023-03-17T06:32:23.784Z,48.09
2023-03-17T06:33:26.008Z,48.29
2023-03-17T06:34:27.561Z,47.76
2023-03-17T06:35:30.280Z,47.35
2023-03-17T06:36:32.348Z,47.17
2023-03-17T06:37:34.204Z,47.01
2023-03-17T06:38:35.751Z,46.55
2023-03-17T06:39:37.519Z,46.54
2023-03-17T06:40:39.060Z,46.51
2023-03-17T06:41:40.677Z,46.30
2023-03-17T06:42:42.222Z,46.29
2023-03-17T06:43:43.733Z,46.01
2023-03-17T06:44:45.615Z,44.98
2023-03-17T06:45:47.111Z,44.67
2023-03-17T06:46:48.760Z,45.07
2023-03-17T06:47:50.589Z,44.44
2023-03-17T06:48:52.089Z,43.78
2023-03-17T06:49:53.612Z,43.94
2023-03-17T06:50:55.143Z,44.10
2023-03-17T06:51:56.634Z,43.91
2023-03-17T06:52:58.157Z,43.63
2023-03-17T06:53:59.689Z,43.71
2023-03-17T06:55:01.202Z,42.49
2023-03-17T06:56:04.994Z,41.84
2023-03-17T06:57:06.930Z,41.69
2023-03-17T06:58:10.541Z,41.85
2023-03-17T06:59:13.297Z,41.35
2023-03-17T07:00:15.875Z,39.46
2023-03-17T07:01:17.745Z,39.71
2023-03-17T07:02:19.758Z,39.28
2023-03-17T07:03:22.451Z,39.13
2023-03-17T07:04:24.379Z,38.65
2023-03-17T07:05:26.408Z,38.94
2023-03-17T07:06:28.579Z,39.72
2023-03-17T07:07:30.084Z,39.35
2023-03-17T07:08:32.024Z,39.05
2023-03-17T07:09:34.710Z,39.12
2023-03-17T07:10:36.720Z,39.65
2023-03-17T07:11:38.365Z,39.82
2023-03-17T07:12:39.867Z,40.03
2023-03-17T07:13:41.901Z,39.74
2023-03-17T07:14:44.011Z,40.21
2023-03-17T07:15:45.557Z,40.37
2023-03-17T07:16:48.479Z,39.96
2023-03-17T07:17:50.024Z,39.92
2023-03-17T07:18:51.593Z,39.83
2023-03-17T07:19:53.102Z,39.56
2023-03-17T07:20:54.593Z,39.58
2023-03-17T07:21:56.450Z,40.11
2023-03-17T07:22:58.091Z,39.28
2023-03-17T07:23:59.645Z,39.13
2023-03-17T07:25:01.669Z,39.63
2023-03-17T07:26:03.785Z,40.01
2023-03-17T07:27:05.266Z,39.51
2023-03-17T07:28:06.832Z,39.89
2023-03-17T07:29:08.393Z,41.16
2023-03-17T07:30:10.995Z,40.70
2023-03-17T07:31:14.320Z,41.79
2023-03-17T07:32:15.978Z,41.17
2023-03-17T07:33:17.810Z,40.81
2023-03-17T07:34:19.833Z,41.20
2023-03-17T07:35:21.514Z,39.43
2023-03-17T07:36:23.459Z,38.57
2023-03-17T07:37:25.217Z,37.60
2023-03-17T07:38:26.837Z,35.87
2023-03-17T07:39:28.395Z,33.70
2023-03-17T07:40:30.872Z,31.18
2023-03-17T07:41:32.863Z,29.30
2023-03-17T07:42:34.929Z,28.79
2023-03-17T07:43:37.810Z,26.83
2023-03-17T07:44:41.882Z,26.02
2023-03-17T07:45:44.680Z,24.38
2023-03-17T07:46:46.425Z,22.77
2023-03-17T07:47:48.485Z,21.13
2023-03-17T07:48:50.491Z,20.07
2023-03-17T07:49:52.688Z,18.71
2023-03-17T07:50:54.355Z,17.09
2023-03-17T07:51:55.962Z,17.08
2023-03-17T07:52:57.831Z,15.91
2023-03-17T07:54:03.968Z,15.12
2023-03-17T07:55:08.497Z,15.34
2023-03-17T07:56:11.011Z,13.84
2023-03-17T07:57:12.651Z,13.54
2023-03-17T07:58:15.866Z,14.33
2023-03-17T07:59:18.282Z,13.38
2023-03-17T08:00:20.211Z,12.68
2023-03-17T08:01:21.783Z,13.97
2023-03-17T08:02:23.372Z,13.75
2023-03-17T08:03:24.973Z,13.48
2023-03-17T08:04:27.569Z,12.49
2023-03-17T08:05:29.157Z,11.84
2023-03-17T08:06:31.168Z,11.90
2023-03-17T08:07:32.688Z,11.42
2023-03-17T08:08:34.498Z,11.73
2023-03-17T08:09:37.670Z,11.88
2023-03-17T08:10:39.785Z,13.54
2023-03-17T08:11:41.367Z,13.58
2023-03-17T08:12:43.046Z,12.58
2023-03-17T08:13:44.926Z,13.06
2023-03-17T08:14:46.563Z,14.98
2023-03-17T08:15:48.112Z,14.88
2023-03-17T08:16:49.690Z,14.59
2023-03-17T08:17:51.699Z,14.70
2023-03-17T08:18:53.619Z,14.80
2023-03-17T08:19:55.944Z,15.50
2023-03-17T08:20:57.522Z,15.48
2023-03-17T08:21:59.227Z,16.01
2023-03-17T08:23:01.447Z,17.97
2023-03-17T08:24:04.481Z,19.63
2023-03-17T08:25:06.182Z,21.20
2023-03-17T08:26:08.495Z,21.32
2023-03-17T08:27:10.109Z,22.17
2023-03-17T08:28:11.649Z,22.84
2023-03-17T08:29:13.168Z,22.96
2023-03-17T08:30:16.405Z,23.05
2023-03-17T08:31:19.470Z,23.50
2023-03-17T08:32:21.020Z,23.79
2023-03-17T08:33:22.883Z,22.92
2023-03-17T08:34:24.491Z,22.60
2023-03-17T08:35:26.241Z,23.32
2023-03-17T08:36:27.993Z,22.95
2023-03-17T08:37:29.553Z,22.75
2023-03-17T08:38:31.694Z,22.63
2023-03-17T08:39:33.225Z,23.49
2023-03-17T08:40:34.958Z,24.27
2023-03-17T08:41:37.545Z,24.11
2023-03-17T08:42:39.353Z,24.03
2023-03-17T08:43:42.340Z,24.26
2023-03-17T08:44:44.224Z,24.43
2023-03-17T08:45:45.788Z,24.56
2023-03-17T08:46:49.234Z,24.79
2023-03-17T08:47:50.772Z,25.02
2023-03-17T08:48:52.390Z,24.82
2023-03-17T08:49:54.857Z,25.04
2023-03-17T08:50:56.811Z,25.39
2023-03-17T08:51:58.340Z,24.98
2023-03-17T08:52:59.849Z,24.66
2023-03-17T08:54:01.393Z,24.43
2023-03-17T08:55:03.108Z,24.92
2023-03-17T08:56:05.192Z,25.18
2023-03-17T08:57:06.787Z,25.71
2023-03-17T08:58:09.400Z,25.50
2023-03-17T08:59:11.008Z,25.86
2023-03-17T09:00:13.864Z,26.22
2023-03-17T09:01:15.536Z,25.84
2023-03-17T09:02:17.149Z,25.65
2023-03-17T09:03:19.042Z,25.56
2023-03-17T09:04:20.595Z,26.05
2023-03-17T09:05:22.094Z,25.66
2023-03-17T09:06:23.859Z,25.22
2023-03-17T09:07:25.406Z,25.88
2023-03-17T09:08:28.014Z,25.57
2023-03-17T09:09:31.139Z,26.45
2023-03-17T09:10:33.099Z,27.06
2023-03-17T09:11:34.987Z,27.11
2023-03-17T09:12:37.333Z,27.64
2023-03-17T09:13:39.419Z,28.48
2023-03-17T09:14:44.291Z,28.96
2023-03-17T09:15:46.462Z,29.87
2023-03-17T09:16:48.781Z,29.66
2023-03-17T09:17:50.855Z,30.15
2023-03-17T09:18:52.964Z,30.20
2023-03-17T09:19:54.525Z,31.09
2023-03-17T09:20:56.463Z,30.60
2023-03-17T09:21:57.976Z,30.68
2023-03-17T09:22:59.548Z,30.41
2023-03-17T09:24:02.670Z,30.55
2023-03-17T09:25:04.508Z,31.01
2023-03-17T09:26:06.086Z,31.04
2023-03-17T09:27:07.653Z,30.92
2023-03-17T09:28:13.339Z,30.96
2023-03-17T09:29:16.035Z,30.77
2023-03-17T09:30:17.725Z,29.51
2023-03-17T09:31:19.297Z,28.42
2023-03-17T09:32:21.144Z,28.08
2023-03-17T09:33:22.715Z,28.38
2023-03-17T09:34:27.597Z,27.73
2023-03-17T09:35:31.418Z,27.53
2023-03-17T09:36:36.114Z,27.93
2023-03-17T09:37:37.974Z,27.37
2023-03-17T09:38:39.831Z,27.78
2023-03-17T09:39:41.652Z,27.06
2023-03-17T09:41:00.391Z,27.14
2023-03-17T09:42:23.004Z,27.98
2023-03-17T09:43:43.214Z,28.73
2023-03-17T09:45:03.393Z,28.46
2023-03-17T09:46:17.190Z,28.50
2023-03-17T09:47:44.257Z,29.65
2023-03-17T09:49:05.404Z,29.74
2023-03-17T09:50:18.297Z,29.88
2023-03-17T09:51:19.848Z,30.61
2023-03-17T09:52:29.049Z,29.96
2023-03-17T09:53:40.209Z,30.15
2023-03-17T09:54:41.940Z,30.00
2023-03-17T09:55:43.508Z,30.38
2023-03-17T09:56:47.877Z,30.96
2023-03-17T09:57:49.379Z,30.82
2023-03-17T09:58:53.361Z,30.79
2023-03-17T10:00:04.632Z,29.77
2023-03-17T10:01:08.446Z,29.41
2023-03-17T10:02:23.041Z,29.68
2023-03-17T10:03:25.194Z,28.88
2023-03-17T10:04:27.148Z,29.82
2023-03-17T10:05:30.714Z,29.55
2023-03-17T10:06:46.660Z,30.67
2023-03-17T10:07:55.179Z,30.39
2023-03-17T10:09:08.073Z,30.83
2023-03-17T10:10:15.330Z,30.57
2023-03-17T10:11:24.046Z,30.20
2023-03-17T10:12:45.708Z,30.25
2023-03-17T10:13:53.248Z,30.71
2023-03-17T10:15:04.322Z,30.67
2023-03-17T10:16:27.522Z,31.21
2023-03-17T10:17:32.056Z,31.45
2023-03-17T10:18:41.866Z,31.82
2023-03-17T10:20:04.338Z,31.15
2023-03-17T10:21:07.124Z,30.90
2023-03-17T10:22:21.899Z,31.02
2023-03-17T10:23:29.573Z,30.78
2023-03-17T10:24:32.562Z,30.36
2023-03-17T10:25:36.019Z,31.03
2023-03-17T10:26:41.911Z,30.61
2023-03-17T10:27:45.500Z,30.44
2023-03-17T10:28:46.997Z,31.01
2023-03-17T10:29:48.812Z,31.07
2023-03-17T10:30:50.872Z,30.47
2023-03-17T10:31:53.289Z,29.60
2023-03-17T10:32:57.367Z,30.03
2023-03-17T10:33:59.063Z,30.00
2023-03-17T10:35:00.601Z,29.75
2023-03-17T10:36:09.726Z,29.44
2023-03-17T10:37:18.330Z,28.57
2023-03-17T10:38:22.715Z,27.33
2023-03-17T10:39:24.729Z,26.90
2023-03-17T10:40:28.508Z,25.83
2023-03-17T10:41:30.190Z,25.15
2023-03-17T10:42:35.637Z,24.39
2023-03-17T10:43:42.349Z,23.86
2023-03-17T10:44:48.477Z,22.99
2023-03-17T10:46:06.031Z,21.74
2023-03-17T10:47:39.708Z,21.31
2023-03-17T10:48:41.600Z,19.42
2023-03-17T10:49:43.959Z,17.98
2023-03-17T10:50:48.609Z,16.85
2023-03-17T10:51:56.196Z,16.57
2023-03-17T10:53:18.254Z,16.38
2023-03-17T10:54:20.806Z,16.62
2023-03-17T10:55:22.585Z,16.92
2023-03-17T10:56:26.111Z,18.05
2023-03-17T10:57:28.117Z,19.30
2023-03-17T10:58:38.442Z,19.10
2023-03-17T10:59:46.456Z,19.79
2023-03-17T11:01:05.720Z,20.89
2023-03-17T11:02:18.144Z,22.34
2023-03-17T11:03:27.196Z,23.37
2023-03-17T11:04:36.838Z,23.65
2023-03-17T11:05:39.739Z,23.72
2023-03-17T11:06:44.160Z,24.26
2023-03-17T11:07:45.662Z,25.04
2023-03-17T11:08:53.838Z,25.12
2023-03-17T11:09:59.118Z,26.29
2023-03-17T11:11:00.624Z,26.18
2023-03-17T11:12:21.452Z,26.38
2023-03-17T11:13:29.471Z,26.56
2023-03-17T11:14:31.415Z,27.72
2023-03-17T11:15:37.938Z,27.88
2023-03-17T11:17:03.266Z,27.54
2023-03-17T11:18:13.787Z,27.44
2023-03-17T11:19:16.112Z,27.74
2023-03-17T11:20:23.477Z,27.79
2023-03-17T11:21:27.942Z,28.91
2023-03-17T11:22:38.118Z,28.37
2023-03-17T11:23:42.441Z,27.90
2023-03-17T11:25:20.127Z,27.84
2023-03-17T11:26:24.390Z,27.32
2023-03-17T11:27:28.906Z,27.86
2023-03-17T11:28:35.996Z,28.40
2023-03-17T11:29:37.384Z,28.40
2023-03-17T11:31:09.378Z,28.18
2023-03-17T11:32:33.581Z,28.12
2023-03-17T11:33:53.399Z,28.06
2023-03-17T11:35:24.078Z,28.13
2023-03-17T11:36:56.442Z,27.62
2023-03-17T11:38:13.830Z,27.85
2023-03-17T11:39:31.602Z,27.64
2023-03-17T11:40:44.940Z,27.83
2023-03-17T11:42:06.921Z,27.45
2023-03-17T11:43:39.453Z,28.69
2023-03-17T11:44:53.261Z,27.96
2023-03-17T11:46:10.717Z,26.95
2023-03-17T11:47:27.850Z,26.52
2023-03-17T11:48:38.224Z,26.37
2023-03-17T11:49:40.318Z,26.95
2023-03-17T11:50:44.654Z,27.02
2023-03-17T11:51:59.257Z,26.96
2023-03-17T11:53:20.610Z,26.71
2023-03-17T11:54:45.885Z,27.03
2023-03-17T11:56:01.612Z,27.29
2023-03-17T11:57:11.197Z,26.80
2023-03-17T11:58:37.121Z,26.58
2023-03-17T11:59:52.387Z,26.21
2023-03-17T12:00:58.558Z,25.86
2023-03-17T12:02:38.502Z,25.90
2023-03-17T12:03:47.577Z,26.23
2023-03-17T12:05:27.746Z,26.75
2023-03-17T12:06:33.842Z,26.18
2023-03-17T12:07:42.074Z,26.56
2023-03-17T12:09:07.837Z,26.23
2023-03-17T12:10:25.684Z,27.25
2023-03-17T12:11:31.784Z,26.82
2023-03-17T12:12:38.136Z,27.33
2023-03-17T12:13:46.933Z,27.40
2023-03-17T12:14:48.838Z,27.18
2023-03-17T12:15:53.061Z,27.07
2023-03-17T12:17:00.715Z,27.10
2023-03-17T12:18:12.593Z,26.75
2023-03-17T12:19:18.094Z,26.70
2023-03-17T12:20:37.273Z,27.59
2023-03-17T12:21:50.395Z,26.84
2023-03-17T12:22:57.830Z,26.62
2023-03-17T12:24:17.518Z,26.81
2023-03-17T12:25:49.756Z,26.36
2023-03-17T12:26:54.257Z,26.49
2023-03-17T12:28:15.865Z,26.24
2023-03-17T12:29:25.909Z,26.35
2023-03-17T12:30:45.424Z,26.55
2023-03-17T12:31:50.731Z,26.74
2023-03-17T12:33:07.166Z,26.65
2023-03-17T12:34:33.268Z,26.37
2023-03-17T12:35:36.885Z,26.77
2023-03-17T12:36:38.715Z,26.62
2023-03-17T12:37:41.124Z,26.40
2023-03-17T12:39:05.867Z,26.57
2023-03-17T12:40:12.984Z,26.91
2023-03-17T12:41:15.304Z,26.53
2023-03-17T12:42:19.695Z,26.58
2023-03-17T12:43:24.023Z,27.06
2023-03-17T12:44:57.597Z,26.88
2023-03-17T12:46:38.261Z,27.00
2023-03-17T12:47:43.915Z,26.48
2023-03-17T12:49:13.275Z,26.28
2023-03-17T12:50:15.386Z,25.84
2023-03-17T12:51:47.118Z,25.95
2023-03-17T12:53:05.076Z,26.41
2023-03-17T12:54:22.115Z,25.91
2023-03-17T12:55:24.882Z,26.05
2023-03-17T12:56:30.089Z,26.19
2023-03-17T12:57:39.862Z,26.00
2023-03-17T12:58:44.501Z,25.67
2023-03-17T12:59:48.054Z,25.78
2023-03-17T13:00:55.474Z,26.37
2023-03-17T13:01:58.812Z,26.11
2023-03-17T13:03:24.974Z,26.23
2023-03-17T13:04:32.287Z,25.92
2023-03-17T13:05:35.314Z,26.41
2023-03-17T13:06:45.243Z,24.61
2023-03-17T13:07:51.511Z,25.54
2023-03-17T13:08:53.157Z,25.01
2023-03-17T13:09:54.546Z,24.89
2023-03-17T13:11:14.873Z,24.66
2023-03-17T13:12:44.525Z,24.52
2023-03-17T13:13:56.083Z,24.31
2023-03-17T13:14:58.031Z,24.16
2023-03-17T13:15:59.968Z,24.50
2023-03-17T13:17:05.793Z,24.62
2023-03-17T13:18:16.005Z,23.85
2023-03-17T13:19:25.159Z,24.08
2023-03-17T13:20:40.178Z,23.76
2023-03-17T13:22:05.503Z,23.95
2023-03-17T13:23:09.900Z,24.17
2023-03-17T13:24:18.256Z,24.24
2023-03-17T13:25:35.237Z,24.11
2023-03-17T13:26:55.053Z,24.11
2023-03-17T13:28:12.221Z,24.10
2023-03-17T13:29:25.040Z,24.41
2023-03-17T13:30:26.809Z,24.19
2023-03-17T13:31:29.790Z,24.14
2023-03-17T13:32:32.392Z,24.23
2023-03-17T13:33:34.087Z,24.51
2023-03-17T13:34:45.875Z,24.52
2023-03-17T13:36:14.305Z,24.56
2023-03-17T13:37:24.150Z,24.57
2023-03-17T13:39:15.032Z,24.75
2023-03-17T13:40:17.208Z,23.51
2023-03-17T13:41:40.436Z,23.82
2023-03-17T13:43:13.125Z,23.85
2023-03-17T13:44:37.737Z,24.20
2023-03-17T13:45:40.244Z,23.57
2023-03-17T13:46:44.328Z,24.28
2023-03-17T13:47:47.206Z,24.32
2023-03-17T13:48:48.896Z,24.80
2023-03-17T13:49:51.601Z,24.49
2023-03-17T13:51:08.578Z,24.69
2023-03-17T13:52:18.242Z,24.30
2023-03-17T13:53:19.750Z,24.79
2023-03-17T13:54:26.868Z,24.75